Terminal Aerodrome Forecast
Issued by NWS

Home | Current Version | Previous Version | Text Only | Print | Product List | Glossary On
Versions: 1 2 3 4 5 6 7 8 9 10 11 12 13 14 15 16 17 18 19 20 21 22 23
000
FTAK31 PAJN 152300
TAFAJN
TAF
PAJN 152321Z 1600/1624 VRB04KT P6SM FEW030 SCT080 BKN200
     FM160300 10004KT P6SM -RA SCT025 OVC050
     FM160900 00000KT P6SM BCFG SCT005 OVC060
     FM161800 06004KT P6SM SCT025 BKN100=

USA.gov is the U.S. government's official web portal to all federal, state and local government web resources and services.